Time;durP1;ratioP1;P1;durP2;ratioP2;P2;SDS_P1;SDS_P2;PMS_P1;PMS_P2;Temp;Humidity;BMP_temperature;BMP_pressure;BME280_temperature;BME280_humidity;BME280_pressure;Samples;Min_cycle;Max_cycle;Signal;HPM_P1;HPM_P2
2020/12/26 00:01:39;;;;;;;25.23;16.83;;;0.40;99.90;;;;;;5041729;28;20048;-48
2020/12/26 00:04:05;;;;;;;29.83;17.85;;;0.40;99.90;;;;;;5037919;28;20120;-51
2020/12/26 00:06:30;;;;;;;34.72;18.05;;;0.40;99.90;;;;;;5028147;28;20021;-48
2020/12/26 00:08:56;;;;;;;28.83;17.35;;;0.40;99.90;;;;;;5048249;28;20087;-52
2020/12/26 00:11:22;;;;;;;32.63;18.88;;;0.40;99.90;;;;;;5047365;28;20037;-48
2020/12/26 00:13:51;;;;;;;39.63;18.02;;;0.40;99.90;;;;;;5048041;28;20120;-52
2020/12/26 00:16:18;;;;;;;27.75;16.00;;;0.40;99.90;;;;;;5042176;28;20049;-51
2020/12/26 00:18:45;;;;;;;31.23;18.13;;;0.50;99.90;;;;;;5022185;28;20021;-48
2020/12/26 00:21:14;;;;;;;31.83;18.15;;;0.50;99.90;;;;;;5025172;28;20031;-48
2020/12/26 00:23:41;;;;;;;29.88;17.55;;;0.50;99.90;;;;;;5039515;28;20638;-49
2020/12/26 00:26:06;;;;;;;30.80;17.02;;;0.50;99.90;;;;;;5046432;28;20452;-49
2020/12/26 00:28:32;;;;;;;29.85;16.58;;;0.50;99.90;;;;;;5047416;28;20029;-49
2020/12/26 00:30:58;;;;;;;23.27;15.20;;;0.60;99.90;;;;;;5046129;28;20343;-49
2020/12/26 00:33:24;;;;;;;28.65;16.25;;;0.60;99.90;;;;;;5046939;28;20473;-49
2020/12/26 00:35:50;;;;;;;32.85;16.27;;;0.60;99.90;;;;;;5047326;28;20033;-53
2020/12/26 00:38:16;;;;;;;26.02;14.73;;;0.60;99.90;;;;;;5043959;28;20033;-50
2020/12/26 00:40:42;;;;;;;33.53;16.73;;;0.60;99.90;;;;;;5035996;28;20116;-53
2020/12/26 00:43:08;;;;;;;26.15;14.48;;;0.60;99.90;;;;;;5027020;28;20498;-53
2020/12/26 00:45:34;;;;;;;28.40;15.02;;;0.60;99.90;;;;;;5027398;28;20025;-52
2020/12/26 00:48:00;;;;;;;27.08;15.13;;;0.60;99.90;;;;;;5046767;28;20682;-51
2020/12/26 00:50:26;;;;;;;27.55;14.18;;;0.60;99.90;;;;;;5034113;28;20056;-51
2020/12/26 00:52:51;;;;;;;30.17;14.23;;;0.60;99.90;;;;;;5037293;28;20514;-49
2020/12/26 00:55:17;;;;;;;24.48;13.50;;;0.60;99.90;;;;;;5046143;28;20025;-53
2020/12/26 00:57:43;;;;;;;26.08;13.20;;;0.70;99.90;;;;;;5046890;28;20028;-52
2020/12/26 01:00:09;;;;;;;26.65;13.48;;;0.60;99.90;;;;;;5042885;28;20087;-49
2020/12/26 01:02:35;;;;;;;28.38;14.95;;;0.60;99.90;;;;;;5040140;28;20025;-51
2020/12/26 01:05:02;;;;;;;21.25;11.82;;;0.60;99.90;;;;;;5044959;28;20471;-49
2020/12/26 01:07:28;;;;;;;21.35;12.27;;;0.60;99.90;;;;;;5035736;28;20136;-49
2020/12/26 01:09:53;;;;;;;29.85;12.98;;;0.60;99.90;;;;;;5027867;28;20045;-53
2020/12/26 01:12:19;;;;;;;23.10;13.20;;;0.60;99.90;;;;;;5027401;28;20340;-52
2020/12/26 01:14:45;;;;;;;22.58;12.48;;;0.60;99.90;;;;;;5027289;28;20029;-53
2020/12/26 01:17:11;;;;;;;25.70;13.82;;;0.60;99.90;;;;;;5037579;28;20029;-53
2020/12/26 01:19:37;;;;;;;27.00;13.80;;;0.60;99.90;;;;;;5040674;28;20267;-52
2020/12/26 01:22:03;;;;;;;24.30;13.48;;;0.50;99.90;;;;;;5046201;28;20025;-51
2020/12/26 01:24:29;;;;;;;23.17;13.43;;;0.60;99.90;;;;;;5046798;28;20151;-49
2020/12/26 01:26:54;;;;;;;30.60;14.73;;;0.60;99.90;;;;;;5039901;28;20192;-50
2020/12/26 01:29:21;;;;;;;26.85;14.35;;;0.60;99.90;;;;;;5027669;28;20018;-53
2020/12/26 01:31:51;;;;;;;24.20;12.63;;;0.60;99.90;;;;;;5031912;28;20023;-50
2020/12/26 01:34:17;;;;;;;23.10;12.75;;;0.70;99.90;;;;;;5036881;28;20022;-51
2020/12/26 01:36:47;;;;;;;23.05;13.88;;;0.70;99.90;;;;;;5028747;28;20037;-50
2020/12/26 01:39:12;;;;;;;25.00;14.23;;;0.70;99.90;;;;;;5031293;28;20022;-53
2020/12/26 01:41:38;;;;;;;26.13;14.00;;;0.80;99.90;;;;;;5034511;28;20028;-53
2020/12/26 01:44:04;;;;;;;28.10;14.30;;;0.70;99.90;;;;;;5048488;28;20410;-48
2020/12/26 01:46:31;;;;;;;24.90;12.82;;;0.70;99.90;;;;;;5049517;28;20029;-51
2020/12/26 01:48:59;;;;;;;23.80;12.90;;;0.80;99.90;;;;;;5042041;28;20029;-51
2020/12/26 01:51:29;;;;;;;24.38;13.15;;;0.80;99.90;;;;;;5041440;28;20037;-48
2020/12/26 01:53:55;;;;;;;26.53;13.13;;;0.80;99.90;;;;;;5037214;28;20036;-51
2020/12/26 01:56:22;;;;;;;32.13;15.00;;;0.80;99.90;;;;;;5036111;28;20033;-52
2020/12/26 01:58:47;;;;;;;28.77;14.75;;;0.80;99.90;;;;;;5036157;28;20036;-48
2020/12/26 02:01:13;;;;;;;24.58;14.25;;;0.80;99.90;;;;;;5032753;28;20041;-50
2020/12/26 02:03:40;;;;;;;28.00;14.45;;;0.90;99.90;;;;;;5034993;28;20025;-49
2020/12/26 02:06:09;;;;;;;33.33;14.90;;;0.80;99.90;;;;;;5047138;28;20055;-51
2020/12/26 02:08:36;;;;;;;29.55;15.38;;;0.80;99.90;;;;;;5039918;28;20024;-48
2020/12/26 02:11:05;;;;;;;24.92;13.98;;;0.90;99.90;;;;;;5032138;28;20017;-48
2020/12/26 02:13:31;;;;;;;28.55;15.70;;;0.90;99.90;;;;;;5046921;28;20033;-50
2020/12/26 02:16:08;;;;;;;27.60;14.02;;;0.90;99.90;;;;;;5046404;28;20367;-50
2020/12/26 02:18:35;;;;;;;26.25;14.27;;;1.00;99.90;;;;;;5028695;28;20049;-47
2020/12/26 02:21:02;;;;;;;27.05;14.82;;;1.00;99.90;;;;;;5033238;28;20029;-50
2020/12/26 02:23:28;;;;;;;30.45;14.35;;;1.00;99.90;;;;;;5042424;28;20031;-51
2020/12/26 02:25:57;;;;;;;29.80;14.20;;;1.00;99.90;;;;;;5037049;28;20005;-47
2020/12/26 02:28:25;;;;;;;26.55;13.23;;;1.00;99.90;;;;;;5029028;28;20022;-48
2020/12/26 02:30:51;;;;;;;34.45;14.20;;;1.10;99.90;;;;;;5028923;28;20165;-48
2020/12/26 02:33:17;;;;;;;27.27;14.65;;;1.10;99.90;;;;;;5041967;28;20082;-52
2020/12/26 02:35:47;;;;;;;27.42;15.70;;;1.10;99.90;;;;;;5048914;28;20116;-51
2020/12/26 02:38:18;;;;;;;24.98;13.90;;;1.10;99.90;;;;;;5045421;28;20112;-49
2020/12/26 02:40:49;;;;;;;24.83;13.68;;;1.10;99.90;;;;;;5040735;28;20029;-51
2020/12/26 02:43:25;;;;;;;25.30;13.82;;;1.20;99.90;;;;;;5048922;28;20040;-52
2020/12/26 02:45:53;;;;;;;29.55;14.07;;;1.20;99.90;;;;;;5046391;28;20056;-52
2020/12/26 02:48:19;;;;;;;23.42;13.45;;;1.20;99.90;;;;;;5048612;28;20025;-53
2020/12/26 02:50:45;;;;;;;25.30;12.82;;;1.20;99.90;;;;;;5029600;28;20329;-51
2020/12/26 02:53:11;;;;;;;29.40;13.55;;;1.20;99.90;;;;;;5036484;28;20498;-50
2020/12/26 02:55:37;;;;;;;22.80;13.10;;;1.20;99.90;;;;;;5047902;28;20021;-50
2020/12/26 02:58:03;;;;;;;21.05;12.93;;;1.30;99.90;;;;;;5048843;28;20025;-49
2020/12/26 03:00:29;;;;;;;25.50;13.80;;;1.30;99.90;;;;;;5049452;28;20021;-53
2020/12/26 03:02:55;;;;;;;25.02;12.63;;;1.30;99.90;;;;;;5039623;28;20021;-53
2020/12/26 03:05:21;;;;;;;31.70;13.32;;;1.30;99.90;;;;;;5045304;28;20179;-53
2020/12/26 03:07:47;;;;;;;28.98;12.63;;;1.30;99.90;;;;;;5048708;28;20029;-50
2020/12/26 03:10:12;;;;;;;30.08;13.80;;;1.20;99.90;;;;;;5049105;28;20507;-52
2020/12/26 03:12:38;;;;;;;25.17;12.30;;;1.20;99.90;;;;;;5049065;28;20465;-48
2020/12/26 03:15:04;;;;;;;23.48;12.88;;;1.20;99.90;;;;;;5047585;28;20029;-51
2020/12/26 03:17:30;;;;;;;24.73;11.98;;;1.20;99.90;;;;;;5047748;28;20116;-50
2020/12/26 03:19:58;;;;;;;27.23;13.32;;;1.30;99.90;;;;;;5035901;28;20113;-50
2020/12/26 03:22:24;;;;;;;22.83;12.07;;;1.30;99.90;;;;;;5028101;28;20028;-49
2020/12/26 03:24:50;;;;;;;22.88;12.45;;;1.30;99.90;;;;;;5047406;28;20028;-47
2020/12/26 03:27:16;;;;;;;26.13;12.98;;;1.40;99.90;;;;;;5046903;28;20025;-48
2020/12/26 03:29:41;;;;;;;22.48;11.75;;;1.30;99.90;;;;;;5029963;28;20545;-49
2020/12/26 03:32:07;;;;;;;22.00;12.15;;;1.20;99.90;;;;;;5029063;28;20037;-49
2020/12/26 03:34:33;;;;;;;22.13;11.77;;;1.20;99.90;;;;;;5040924;28;20033;-48
2020/12/26 03:36:58;;;;;;;24.92;13.20;;;1.20;99.90;;;;;;5038988;28;20048;-49
2020/12/26 03:39:24;;;;;;;31.52;13.13;;;1.20;99.90;;;;;;5042222;28;20035;-48
2020/12/26 03:41:49;;;;;;;27.08;12.55;;;1.10;99.90;;;;;;5048777;28;20056;-50
2020/12/26 03:44:15;;;;;;;21.73;12.43;;;1.10;99.90;;;;;;5035580;28;20037;-48
2020/12/26 03:46:40;;;;;;;27.75;11.43;;;1.20;99.90;;;;;;5038829;28;20029;-48
2020/12/26 03:49:06;;;;;;;25.63;12.50;;;1.20;99.90;;;;;;5042120;28;20454;-50
2020/12/26 03:51:32;;;;;;;23.50;13.18;;;1.20;99.90;;;;;;5028695;28;20550;-51
2020/12/26 03:53:57;;;;;;;29.30;12.85;;;1.20;99.90;;;;;;5027917;28;20033;-49
2020/12/26 03:56:22;;;;;;;25.70;13.02;;;1.30;99.90;;;;;;5034680;28;20071;-50
2020/12/26 03:58:48;;;;;;;27.00;13.35;;;1.30;99.90;;;;;;5031574;28;20021;-53
2020/12/26 04:01:14;;;;;;;24.30;12.15;;;1.30;99.90;;;;;;5041669;28;20187;-49
2020/12/26 04:03:39;;;;;;;21.95;11.65;;;1.40;99.90;;;;;;5046215;28;20025;-48
2020/12/26 04:06:05;;;;;;;26.45;12.00;;;1.40;99.90;;;;;;5033592;28;20016;-53
2020/12/26 04:08:32;;;;;;;23.25;11.77;;;1.30;99.90;;;;;;5045935;28;20122;-48
2020/12/26 04:10:57;;;;;;;24.20;12.18;;;1.30;99.90;;;;;;5048459;28;20028;-49
2020/12/26 04:13:23;;;;;;;24.00;11.70;;;1.30;99.90;;;;;;5047660;28;20032;-49
2020/12/26 04:15:48;;;;;;;30.15;14.00;;;1.20;99.90;;;;;;5042620;28;20085;-48
2020/12/26 04:18:14;;;;;;;25.50;12.15;;;1.20;99.90;;;;;;5027756;28;20033;-51
2020/12/26 04:20:40;;;;;;;17.42;11.23;;;1.20;99.90;;;;;;5029104;28;20026;-52
2020/12/26 04:23:06;;;;;;;22.60;11.60;;;1.20;99.90;;;;;;5048262;28;20422;-52
2020/12/26 04:25:31;;;;;;;27.77;13.18;;;1.20;99.90;;;;;;5045558;28;20120;-48
2020/12/26 04:27:57;;;;;;;28.52;12.25;;;1.30;99.90;;;;;;5040013;28;20108;-49
2020/12/26 04:30:23;;;;;;;24.25;11.88;;;1.30;99.90;;;;;;5030184;28;20376;-53
2020/12/26 04:32:50;;;;;;;29.70;15.13;;;1.40;99.90;;;;;;5031424;28;20056;-53
2020/12/26 04:35:19;;;;;;;26.40;12.40;;;1.40;99.90;;;;;;5027801;28;20595;-53
2020/12/26 04:37:45;;;;;;;23.55;13.43;;;1.40;99.90;;;;;;5034339;28;20138;-52
2020/12/26 04:40:10;;;;;;;20.70;12.35;;;1.40;99.90;;;;;;5037116;28;20034;-49
2020/12/26 04:42:37;;;;;;;24.17;12.25;;;1.40;99.90;;;;;;5047991;28;20019;-49
2020/12/26 04:45:03;;;;;;;25.13;12.40;;;1.40;99.90;;;;;;5029775;28;20525;-53
2020/12/26 04:47:35;;;;;;;20.48;11.68;;;1.40;99.90;;;;;;5026328;28;20021;-51
2020/12/26 04:50:02;;;;;;;28.85;12.80;;;1.40;99.90;;;;;;5033691;28;20117;-49
2020/12/26 04:52:35;;;;;;;23.75;13.30;;;1.40;99.90;;;;;;5028161;28;20028;-49
2020/12/26 04:55:05;;;;;;;23.27;11.93;;;1.40;99.90;;;;;;5014461;28;20071;-53
2020/12/26 04:57:34;;;;;;;30.23;13.38;;;1.40;99.90;;;;;;5047753;28;20025;-49
2020/12/26 05:00:03;;;;;;;24.05;12.55;;;1.50;99.90;;;;;;5045645;28;20031;-52
2020/12/26 05:02:44;;;;;;;25.83;13.02;;;1.50;99.90;;;;;;5046632;28;20031;-52
2020/12/26 05:05:10;;;;;;;24.23;11.82;;;1.50;99.90;;;;;;5039885;28;20024;-53
2020/12/26 05:07:36;;;;;;;19.75;11.82;;;1.60;99.90;;;;;;5038280;28;20112;-50
2020/12/26 05:10:04;;;;;;;23.88;12.73;;;1.50;99.90;;;;;;5048468;28;20123;-54
2020/12/26 05:12:29;;;;;;;21.02;12.45;;;1.40;99.90;;;;;;5049939;28;20032;-49
2020/12/26 05:14:55;;;;;;;24.88;12.50;;;1.40;99.90;;;;;;5051330;28;20033;-53
2020/12/26 05:17:20;;;;;;;25.50;13.70;;;1.50;99.90;;;;;;5049586;28;20035;-53
2020/12/26 05:19:47;;;;;;;24.10;12.93;;;1.50;99.90;;;;;;5040050;28;20064;-54
2020/12/26 05:22:13;;;;;;;30.08;14.82;;;1.50;99.90;;;;;;5051346;28;20021;-54
2020/12/26 05:24:39;;;;;;;26.63;13.02;;;1.50;99.90;;;;;;5048647;28;20079;-53
2020/12/26 05:27:04;;;;;;;28.45;13.45;;;1.50;99.90;;;;;;5036427;28;20075;-54
2020/12/26 05:29:36;;;;;;;28.13;13.88;;;1.50;99.90;;;;;;5050977;28;20108;-54
2020/12/26 05:32:13;;;;;;;27.65;13.80;;;1.60;99.90;;;;;;5048350;28;20014;-50
2020/12/26 05:34:41;;;;;;;25.17;12.73;;;1.60;99.90;;;;;;5036385;28;20714;-50
2020/12/26 05:37:07;;;;;;;34.03;16.05;;;1.60;99.90;;;;;;5036161;28;20482;-51
2020/12/26 05:39:34;;;;;;;27.23;13.70;;;1.60;99.90;;;;;;5037251;28;20124;-50
2020/12/26 05:42:00;;;;;;;26.92;15.30;;;1.60;99.90;;;;;;5038924;28;20017;-53
2020/12/26 05:44:29;;;;;;;26.88;13.55;;;1.70;99.90;;;;;;5036144;28;20025;-53
2020/12/26 05:46:57;;;;;;;31.35;13.50;;;1.70;99.90;;;;;;5039382;28;20481;-50
2020/12/26 05:49:28;;;;;;;27.85;13.27;;;1.70;99.90;;;;;;5035308;28;20483;-53
2020/12/26 05:51:57;;;;;;;28.23;14.15;;;1.70;99.90;;;;;;5039835;28;20431;-53
2020/12/26 05:54:25;;;;;;;23.52;12.95;;;1.70;99.90;;;;;;5038799;28;20468;-50
2020/12/26 05:57:11;;;;;;;23.35;13.57;;;1.70;99.90;;;;;;5039674;28;20155;-51
2020/12/26 05:59:37;;;;;;;26.63;14.15;;;1.70;99.90;;;;;;5040297;28;20033;-53
2020/12/26 06:02:21;;;;;;;27.65;13.35;;;1.70;99.90;;;;;;5036445;28;20068;-53
2020/12/26 06:05:00;;;;;;;28.67;13.43;;;1.70;99.90;;;;;;5036547;28;20386;-52
2020/12/26 06:07:34;;;;;;;24.77;13.47;;;1.80;99.90;;;;;;5030044;28;20022;-53
2020/12/26 06:10:01;;;;;;;25.65;15.13;;;1.70;99.90;;;;;;5040595;28;20037;-54
2020/12/26 06:12:29;;;;;;;26.02;13.25;;;1.70;99.90;;;;;;5037627;28;20025;-50
2020/12/26 06:14:56;;;;;;;28.50;14.65;;;1.80;99.90;;;;;;5038407;28;20029;-53
2020/12/26 06:17:28;;;;;;;30.58;14.00;;;1.80;99.90;;;;;;5033084;28;20037;-53
2020/12/26 06:20:05;;;;;;;29.83;14.73;;;1.80;99.90;;;;;;5029451;28;20063;-52
2020/12/26 06:22:47;;;;;;;29.38;13.90;;;1.90;99.90;;;;;;5030967;28;20022;-52
2020/12/26 06:25:20;;;;;;;26.90;15.23;;;1.80;99.90;;;;;;5028611;28;20029;-52
2020/12/26 06:27:56;;;;;;;24.65;13.63;;;1.90;99.90;;;;;;5029657;28;20037;-54
2020/12/26 06:30:22;;;;;;;28.90;15.70;;;1.90;99.90;;;;;;5028470;28;20117;-53
2020/12/26 06:32:50;;;;;;;29.48;14.75;;;1.90;99.90;;;;;;5029011;28;20057;-53
2020/12/26 06:35:20;;;;;;;27.70;14.20;;;1.90;99.90;;;;;;5027744;28;20474;-52
2020/12/26 06:37:48;;;;;;;29.58;14.45;;;1.90;99.90;;;;;;5029214;28;20030;-52
2020/12/26 06:40:32;;;;;;;31.10;15.18;;;1.90;99.90;;;;;;5038376;28;20037;-52
2020/12/26 06:42:57;;;;;;;27.15;15.18;;;1.90;99.90;;;;;;5033346;28;20033;-53
2020/12/26 06:45:34;;;;;;;29.02;14.68;;;2.00;99.90;;;;;;5028670;28;20021;-55
2020/12/26 06:48:00;;;;;;;27.92;14.35;;;2.00;99.90;;;;;;5029893;28;20053;-54
2020/12/26 06:50:30;;;;;;;39.22;16.63;;;2.00;99.90;;;;;;5029118;28;20411;-53
2020/12/26 06:52:56;;;;;;;31.23;14.85;;;2.00;99.90;;;;;;5028746;28;20438;-53
2020/12/26 06:55:41;;;;;;;23.17;13.98;;;2.00;99.90;;;;;;5028900;28;20028;-52
2020/12/26 06:58:23;;;;;;;26.92;14.70;;;2.00;99.90;;;;;;5038466;28;20112;-49
2020/12/26 07:00:49;;;;;;;26.58;15.00;;;2.00;99.90;;;;;;5047788;28;20021;-49
2020/12/26 07:03:16;;;;;;;26.35;15.18;;;2.10;99.90;;;;;;5047336;28;20622;-52
2020/12/26 07:05:42;;;;;;;25.88;14.82;;;2.20;99.90;;;;;;5039245;28;20170;-49
2020/12/26 07:08:19;;;;;;;25.77;14.15;;;2.20;99.90;;;;;;5034078;28;20021;-49
2020/12/26 07:10:45;;;;;;;28.63;14.77;;;2.20;99.90;;;;;;5047964;28;20318;-52
2020/12/26 07:13:11;;;;;;;27.08;14.45;;;2.20;99.90;;;;;;5049005;28;20628;-49
2020/12/26 07:15:36;;;;;;;29.48;14.38;;;2.30;99.90;;;;;;5045162;28;20136;-52
2020/12/26 07:18:23;;;;;;;26.35;15.07;;;2.30;99.90;;;;;;5029441;28;20044;-52
2020/12/26 07:20:50;;;;;;;25.77;13.13;;;2.30;99.90;;;;;;5030268;28;20087;-51
2020/12/26 07:23:16;;;;;;;23.13;13.05;;;2.40;99.90;;;;;;5049162;28;20491;-52
2020/12/26 07:25:41;;;;;;;26.75;14.23;;;2.40;99.90;;;;;;5048223;28;20025;-49
2020/12/26 07:28:07;;;;;;;28.80;13.68;;;2.40;99.90;;;;;;5049633;28;20017;-49
2020/12/26 07:30:35;;;;;;;24.45;13.85;;;2.40;99.90;;;;;;5049148;28;20032;-51
2020/12/26 07:33:01;;;;;;;19.85;12.27;;;2.50;99.90;;;;;;5027747;28;20025;-50
2020/12/26 07:35:39;;;;;;;26.13;13.90;;;2.50;99.90;;;;;;5027447;28;20116;-54
2020/12/26 07:38:09;;;;;;;24.25;12.98;;;2.50;99.90;;;;;;5031336;28;20116;-44
2020/12/26 07:40:42;;;;;;;;;;;2.50;99.90;;;;;;5048339;28;20024;-44
2020/12/26 07:43:13;;;;;;;26.65;12.77;;;2.60;99.90;;;;;;5045022;28;19916;-44
2020/12/26 07:45:41;;;;;;;26.02;12.02;;;2.60;99.90;;;;;;5027629;28;20113;-44
2020/12/26 07:48:07;;;;;;;28.35;13.07;;;2.60;99.90;;;;;;5032788;28;20045;-44
2020/12/26 07:50:35;;;;;;;23.48;12.10;;;2.60;99.90;;;;;;5039128;28;20021;-44
2020/12/26 07:53:06;;;;;;;23.58;13.43;;;2.60;99.90;;;;;;5047540;28;20163;-44
2020/12/26 07:55:31;;;;;;;26.05;13.25;;;2.50;99.90;;;;;;5047980;28;20108;-43
2020/12/26 07:58:01;;;;;;;27.40;11.68;;;2.60;99.90;;;;;;5041548;28;20116;-45
2020/12/26 08:00:29;;;;;;;28.73;13.43;;;2.50;99.90;;;;;;5028470;28;20368;-44
2020/12/26 08:02:58;;;;;;;25.92;12.80;;;2.50;99.90;;;;;;5046790;28;20513;-45
2020/12/26 08:05:26;;;;;;;22.80;12.77;;;2.60;99.90;;;;;;5026547;28;20530;-45
2020/12/26 08:07:52;;;;;;;26.02;12.52;;;2.60;99.90;;;;;;5027445;28;20029;-44
2020/12/26 08:10:19;;;;;;;26.30;13.57;;;2.60;99.90;;;;;;5039031;28;20036;-44
2020/12/26 08:12:58;;;;;;;21.63;12.80;;;2.60;99.90;;;;;;5047042;28;20036;-43
2020/12/26 08:15:26;;;;;;;22.83;11.82;;;2.50;99.90;;;;;;5046933;28;20221;-44
2020/12/26 08:17:54;;;;;;;30.13;13.95;;;2.60;99.90;;;;;;5033761;28;20029;-43
2020/12/26 08:20:22;;;;;;;23.13;12.43;;;2.70;99.90;;;;;;5030541;28;20035;-44
2020/12/26 08:22:48;;;;;;;24.00;12.02;;;2.80;99.90;;;;;;5034215;28;20035;-46
2020/12/26 08:25:16;;;;;;;23.95;12.63;;;2.70;99.90;;;;;;5035320;28;20087;-43
2020/12/26 08:27:41;;;;;;;22.58;12.45;;;2.70;99.90;;;;;;5032961;28;20017;-43
2020/12/26 08:30:10;;;;;;;16.83;11.50;;;2.70;99.90;;;;;;5026417;28;20038;-42
2020/12/26 08:33:05;;;;;;;23.35;12.00;;;2.70;99.90;;;;;;5030406;28;20127;-44
2020/12/26 08:35:32;;;;;;;22.38;12.38;;;2.80;99.90;;;;;;5031514;28;20390;-44
2020/12/26 08:38:05;;;;;;;24.70;11.13;;;2.80;99.90;;;;;;5029027;28;20056;-44
2020/12/26 08:40:36;;;;;;;21.00;11.55;;;2.80;99.90;;;;;;5045169;28;20036;-45
2020/12/26 08:43:02;;;;;;;18.58;11.13;;;2.90;99.90;;;;;;5028388;28;20021;-45
2020/12/26 08:45:33;;;;;;;21.23;11.15;;;2.80;99.90;;;;;;5048309;28;20052;-46
2020/12/26 08:48:16;;;;;;;19.50;11.65;;;2.80;99.90;;;;;;5052156;28;20128;-45
2020/12/26 08:50:42;;;;;;;20.55;11.20;;;2.80;99.90;;;;;;5046550;28;20029;-45
2020/12/26 08:53:10;;;;;;;23.10;11.38;;;2.90;99.90;;;;;;5039189;28;20113;-46
2020/12/26 08:55:45;;;;;;;20.88;11.32;;;2.80;99.90;;;;;;5037170;28;20252;-49
2020/12/26 08:58:21;;;;;;;19.90;11.13;;;2.90;99.90;;;;;;5041461;28;20033;-44
2020/12/26 09:00:48;;;;;;;20.80;10.85;;;2.80;99.90;;;;;;5046960;28;20025;-44
2020/12/26 09:03:20;;;;;;;18.42;11.48;;;2.90;99.90;;;;;;5035499;28;20052;-43
2020/12/26 09:05:46;;;;;;;25.58;12.18;;;2.90;99.90;;;;;;5039947;28;20030;-44
2020/12/26 09:08:12;;;;;;;21.25;10.75;;;3.00;99.90;;;;;;5041236;28;20091;-45
2020/12/26 09:10:39;;;;;;;18.05;10.38;;;3.00;99.90;;;;;;5040914;28;20040;-44
2020/12/26 09:13:09;;;;;;;18.00;10.05;;;3.00;99.90;;;;;;5041464;28;20040;-45
2020/12/26 09:15:54;;;;;;;;;;;3.20;99.90;;;;;;5040098;28;20040;-44
2020/12/26 09:18:25;;;;;;;16.65;9.45;;;3.20;99.90;;;;;;5035816;28;19916;-44
2020/12/26 09:20:52;;;;;;;18.60;9.85;;;3.20;99.90;;;;;;5039283;28;20542;-44
2020/12/26 09:23:18;;;;;;;21.30;9.70;;;3.20;99.90;;;;;;5043194;28;20182;-44
2020/12/26 09:25:44;;;;;;;15.40;9.30;;;3.30;99.90;;;;;;5040322;28;20552;-45
2020/12/26 09:28:09;;;;;;;15.63;9.27;;;3.20;99.90;;;;;;5040625;28;20117;-44
2020/12/26 09:30:35;;;;;;;16.33;10.15;;;3.20;99.90;;;;;;5039250;28;20045;-44
2020/12/26 09:33:01;;;;;;;15.80;9.82;;;3.30;99.90;;;;;;5037554;28;20098;-44
2020/12/26 09:35:27;;;;;;;21.73;9.95;;;3.30;99.90;;;;;;5039786;28;20079;-45
2020/12/26 09:37:57;;;;;;;19.90;9.65;;;3.40;99.90;;;;;;5039486;28;20363;-45
2020/12/26 09:40:34;;;;;;;15.27;9.00;;;3.40;99.90;;;;;;5033293;28;20078;-46
2020/12/26 09:43:01;;;;;;;16.50;9.75;;;3.40;99.90;;;;;;5041354;28;20139;-44
2020/12/26 09:45:27;;;;;;;18.13;9.30;;;3.50;99.90;;;;;;5031975;28;20394;-45
2020/12/26 09:47:59;;;;;;;19.88;9.85;;;3.50;99.90;;;;;;5047717;28;20017;-43
2020/12/26 09:50:25;;;;;;;14.68;8.98;;;3.70;99.90;;;;;;5029662;28;20049;-45
2020/12/26 09:52:52;;;;;;;16.52;9.07;;;3.80;99.90;;;;;;5040904;28;20556;-46
2020/12/26 09:55:17;;;;;;;27.17;10.93;;;3.80;99.90;;;;;;5035940;28;20021;-44
2020/12/26 09:57:43;;;;;;;17.58;9.80;;;3.70;99.90;;;;;;5039476;28;20051;-46
2020/12/26 10:00:09;;;;;;;17.13;9.95;;;3.70;99.90;;;;;;5040168;28;20120;-44
2020/12/26 10:02:35;;;;;;;18.65;9.82;;;3.80;99.90;;;;;;5035930;28;20184;-46
2020/12/26 10:05:04;;;;;;;23.42;10.32;;;3.90;99.90;;;;;;5037487;28;20028;-44
2020/12/26 10:07:31;;;;;;;18.10;9.80;;;4.00;99.90;;;;;;5031830;28;20567;-45
2020/12/26 10:09:57;;;;;;;22.98;10.63;;;4.00;99.90;;;;;;5034953;28;20489;-45
2020/12/26 10:12:22;;;;;;;16.15;9.90;;;4.10;99.90;;;;;;5040570;28;20018;-44
2020/12/26 10:14:48;;;;;;;19.98;10.38;;;4.10;99.90;;;;;;5036036;28;20037;-45
2020/12/26 10:17:14;;;;;;;21.63;11.00;;;4.10;99.90;;;;;;5040946;28;20476;-44
2020/12/26 10:19:43;;;;;;;19.65;10.73;;;4.10;99.90;;;;;;5035010;28;20025;-47
2020/12/26 10:22:08;;;;;;;21.13;10.10;;;4.20;99.90;;;;;;5029065;28;20048;-44
2020/12/26 10:24:34;;;;;;;18.40;11.10;;;4.20;99.90;;;;;;5035246;28;20515;-45
2020/12/26 10:26:59;;;;;;;16.33;10.20;;;4.10;99.90;;;;;;5028892;28;20100;-44
2020/12/26 10:29:25;;;;;;;21.15;9.95;;;4.20;99.90;;;;;;5029988;28;20032;-44
2020/12/26 10:31:50;;;;;;;16.73;9.60;;;4.30;99.90;;;;;;5030154;28;20040;-44
2020/12/26 10:34:17;;;;;;;18.10;10.55;;;4.30;99.90;;;;;;5048157;28;20114;-45
2020/12/26 10:36:44;;;;;;;14.63;10.38;;;4.20;99.90;;;;;;5041015;28;20040;-46
2020/12/26 10:39:09;;;;;;;25.60;12.52;;;4.40;99.90;;;;;;5037746;28;20029;-45
2020/12/26 10:41:35;;;;;;;19.83;10.65;;;4.50;99.90;;;;;;5039053;28;20550;-44
2020/12/26 10:44:00;;;;;;;16.75;11.10;;;4.50;99.90;;;;;;5037778;28;20613;-46
2020/12/26 10:46:26;;;;;;;23.70;11.75;;;4.70;99.90;;;;;;5037135;28;20098;-46
2020/12/26 10:48:52;;;;;;;24.25;11.60;;;4.60;99.90;;;;;;5037030;28;20086;-48
2020/12/26 10:51:17;;;;;;;18.48;10.75;;;4.70;99.90;;;;;;5032662;28;20116;-46
2020/12/26 10:53:44;;;;;;;21.65;12.57;;;4.60;99.90;;;;;;5034899;28;20029;-47
2020/12/26 10:56:09;;;;;;;25.55;11.63;;;4.40;99.90;;;;;;5033766;28;20032;-48
2020/12/26 10:58:35;;;;;;;24.48;12.45;;;4.40;99.90;;;;;;5036994;28;20386;-46
2020/12/26 11:01:00;;;;;;;18.75;11.27;;;4.50;99.90;;;;;;5045328;28;20029;-48
2020/12/26 11:03:26;;;;;;;24.45;11.90;;;4.50;99.90;;;;;;5037475;28;20112;-44
2020/12/26 11:05:52;;;;;;;22.92;12.10;;;4.40;99.90;;;;;;5044755;28;20024;-46
2020/12/26 11:08:17;;;;;;;21.25;12.63;;;4.30;99.90;;;;;;5029973;28;20574;-47
2020/12/26 11:10:44;;;;;;;23.33;12.82;;;4.30;99.90;;;;;;5032784;28;20432;-45
2020/12/26 11:13:10;;;;;;;22.48;13.32;;;4.40;99.90;;;;;;5036419;28;20029;-48
2020/12/26 11:15:35;;;;;;;24.23;13.00;;;4.40;99.90;;;;;;5034287;28;20565;-45
2020/12/26 11:18:02;;;;;;;34.13;14.05;;;4.30;99.90;;;;;;5039920;28;20025;-46
2020/12/26 11:20:28;;;;;;;31.90;13.65;;;4.40;99.90;;;;;;5029238;28;20079;-45
2020/12/26 11:22:53;;;;;;;25.75;13.63;;;4.30;99.90;;;;;;5048853;28;20048;-46
2020/12/26 11:25:19;;;;;;;28.67;12.93;;;4.50;99.90;;;;;;5040830;28;20453;-43
2020/12/26 11:27:45;;;;;;;26.58;13.70;;;4.60;99.90;;;;;;5034132;28;20025;-46
2020/12/26 11:30:10;;;;;;;25.20;13.43;;;4.50;99.90;;;;;;5036326;28;20087;-47
2020/12/26 11:32:36;;;;;;;34.63;13.95;;;4.60;99.90;;;;;;5036094;28;20025;-44
2020/12/26 11:35:02;;;;;;;22.80;13.75;;;4.60;99.90;;;;;;5035601;28;20026;-44
2020/12/26 11:37:30;;;;;;;27.08;13.13;;;4.70;99.90;;;;;;5026089;28;20021;-44
2020/12/26 11:39:55;;;;;;;27.27;14.00;;;4.60;99.90;;;;;;5039107;28;20028;-46
2020/12/26 11:42:21;;;;;;;25.27;12.48;;;4.70;99.90;;;;;;5048589;28;20528;-47
2020/12/26 11:44:47;;;;;;;23.30;13.40;;;4.70;99.90;;;;;;5037186;28;20030;-46
2020/12/26 11:47:12;;;;;;;24.90;13.07;;;4.60;99.90;;;;;;5031996;28;20145;-45
2020/12/26 11:49:38;;;;;;;22.33;12.95;;;4.60;99.90;;;;;;5044596;28;20021;-45
2020/12/26 11:52:04;;;;;;;21.98;13.00;;;4.60;99.90;;;;;;5040523;28;20032;-46
2020/12/26 11:54:29;;;;;;;26.85;13.80;;;4.60;99.90;;;;;;5048309;28;20074;-44
2020/12/26 11:56:55;;;;;;;24.38;12.63;;;4.60;99.90;;;;;;5040427;28;20033;-44
2020/12/26 11:59:21;;;;;;;23.10;11.90;;;4.60;99.90;;;;;;5035830;28;20113;-44
2020/12/26 12:01:47;;;;;;;24.35;12.82;;;4.60;99.90;;;;;;5035947;28;20025;-43
2020/12/26 12:04:13;;;;;;;18.13;12.40;;;4.60;99.90;;;;;;5047901;28;20530;-44
2020/12/26 12:06:38;;;;;;;22.52;12.10;;;4.50;99.90;;;;;;5046235;28;20017;-46
2020/12/26 12:09:05;;;;;;;22.45;12.88;;;4.50;99.90;;;;;;5046006;28;20290;-45
2020/12/26 12:11:31;;;;;;;23.13;13.55;;;4.60;99.90;;;;;;5038111;28;20417;-46
2020/12/26 12:13:56;;;;;;;22.27;11.90;;;4.60;99.90;;;;;;5022905;28;20209;-45
2020/12/26 12:16:23;;;;;;;22.52;11.82;;;4.60;99.90;;;;;;5030427;28;20029;-46
2020/12/26 12:18:48;;;;;;;19.60;11.32;;;4.60;99.90;;;;;;5027480;28;20025;-44
2020/12/26 12:21:14;;;;;;;22.23;12.13;;;4.70;99.90;;;;;;5027055;28;20135;-46
2020/12/26 12:23:40;;;;;;;17.75;11.05;;;4.70;99.90;;;;;;5041549;28;20025;-44
2020/12/26 12:26:05;;;;;;;21.20;12.43;;;4.70;99.90;;;;;;5028374;28;20067;-45
2020/12/26 12:28:31;;;;;;;22.45;11.35;;;4.60;99.90;;;;;;5028954;28;20108;-45
2020/12/26 12:30:56;;;;;;;14.40;10.35;;;4.60;99.90;;;;;;5029914;28;20031;-45
2020/12/26 12:33:22;;;;;;;21.02;11.40;;;4.70;99.90;;;;;;5032536;28;20029;-44
2020/12/26 12:35:47;;;;;;;17.85;11.55;;;4.70;99.90;;;;;;5026052;28;20079;-44
2020/12/26 12:38:13;;;;;;;18.50;10.65;;;4.80;99.90;;;;;;5031483;28;20468;-44
2020/12/26 12:40:38;;;;;;;17.83;11.48;;;4.80;99.90;;;;;;5034159;28;20030;-44